Suehiro Maru No.8 — JK5423 — position and weather

sailwx.info

Track history (hours):
 
Tides and Currents Weather Stations Pressure Air Temp Water Temp Dewpoint Dewpoint Depression Visibility Wind Speed Wind Dir Waves Ship Positions

Suehiro Maru No.8

Last reported at 2016-Aug-23 22:33 UTC. Time now 2016-Aug-24 10:12 UTC.
Position N 34°06' E 135°03'.

Length 88 m; draft 5.2 m.

Type: Cargo ship. MMSI: 431400446.

Date/timePositionNaut miles runAvg speedWind from/ knotsBaromVisibWave heightAir tempDewpointWater temp
2016-Aug-23 22:33N 34°06' E 135°03'9 9.4
2016-Aug-23 21:34N 34°15' E 135°07'0 0.1
2016-Aug-23 20:33N 34°15' E 135°07'0 0.0
2016-Aug-23 19:33N 34°15' E 135°07'0 0.0
2016-Aug-23 18:33N 34°15' E 135°07'0 0.0
2016-Aug-23 17:33N 34°15' E 135°07'0 0.0
2016-Aug-23 16:33N 34°15' E 135°07'0 0.0
2016-Aug-23 15:33N 34°15' E 135°07'0 0.0
2016-Aug-23 14:33N 34°15' E 135°07'0 0.0
2016-Aug-23 13:33N 34°15' E 135°07'0 0.0
2016-Aug-23 12:33N 34°15' E 135°07'0 0.0
2016-Aug-23 11:33N 34°15' E 135°07'0 0.0
2016-Aug-23 10:33N 34°15' E 135°07'0 0.0
2016-Aug-23 09:33N 34°15' E 135°07'0 0.0
2016-Aug-23 08:33N 34°15' E 135°07'4 3.8
2016-Aug-23 07:31N 34°18' E 135°04'1313.6
2016-Aug-23 06:33N 34°31' E 135°04'1111.2
2016-Aug-23 05:34N 34°37' E 134°53'  
2016-Aug-20 21:20N 34°08' E 134°45'237 6.1
2016-Aug-19 06:22N 34°59' E 139°27'1214.6
2016-Aug-19 05:33N 35°06' E 139°38'1212.3
2016-Aug-19 04:33N 35°17' E 139°45'1211.7
2016-Aug-19 03:33N 35°28' E 139°47'10 9.8
2016-Aug-19 02:33N 35°38' E 139°50'0 0.0
2016-Aug-19 01:33N 35°38' E 139°50'0 0.0
2016-Aug-19 00:33N 35°38' E 139°50'0 0.0
2016-Aug-18 23:33N 35°38' E 139°50'0 0.0
2016-Aug-18 22:33N 35°38' E 139°50'0 0.0
2016-Aug-18 21:33N 35°38' E 139°50'1 1.2
2016-Aug-18 20:33N 35°37' E 139°50'4 4.4
2016-Aug-18 19:33N 35°33' E 139°52'1211.6
2016-Aug-18 18:33N 35°22' E 139°45'1211.8
2016-Aug-18 17:33N 35°10' E 139°47'1311.6
2016-Aug-18 16:27N 34°60' E 139°37'232 6.6
2016-Aug-17 05:33N 34°05' E 135°04'9 9.3
2016-Aug-17 04:34N 34°14' E 135°08'0 0.0
2016-Aug-17 03:33N 34°14' E 135°08'0 0.0
2016-Aug-17 02:33N 34°14' E 135°08'0 0.0
2016-Aug-17 01:34N 34°14' E 135°08'0 0.0
2016-Aug-17 00:34N 34°14' E 135°08'0 0.0
2016-Aug-16 23:33N 34°14' E 135°08'0 0.0
2016-Aug-16 22:34N 34°14' E 135°08'2 2.0
2016-Aug-16 21:34N 34°15' E 135°06'0 0.0
2016-Aug-16 20:33N 34°15' E 135°06'0 0.0
2016-Aug-16 19:33N 34°15' E 135°06'0 0.1
2016-Aug-16 18:34N 34°15' E 135°06'0 0.0
2016-Aug-16 17:34N 34°15' E 135°06'3 3.4
2016-Aug-16 16:34N 34°12' E 135°04'  
2016-Aug-14 00:24N 34°38' E 134°51'910.5
2016-Aug-13 23:33N 34°37' E 135°02'  
Track history (hours):
 
Tides and Currents Weather Stations Pressure Air Temp Water Temp Dewpoint Dewpoint Depression Visibility Wind Speed Wind Dir Waves Ship Positions

Suehiro Maru No.8

Last reported at 2016-Aug-23 22:33 UTC. Time now 2016-Aug-24 10:12 UTC.
Position N 34°06' E 135°03'.

Length 88 m; draft 5.2 m.

Type: Cargo ship. MMSI: 431400446.

Date/timePositionNaut miles runAvg speedWind from/ knotsBaromVisibWave heightAir tempDewpointWater temp
2016-Aug-23 22:33N 34°06' E 135°03'9 9.4
2016-Aug-23 21:34N 34°15' E 135°07'0 0.1
2016-Aug-23 20:33N 34°15' E 135°07'0 0.0
2016-Aug-23 19:33N 34°15' E 135°07'0 0.0
2016-Aug-23 18:33N 34°15' E 135°07'0 0.0
2016-Aug-23 17:33N 34°15' E 135°07'0 0.0
2016-Aug-23 16:33N 34°15' E 135°07'0 0.0
2016-Aug-23 15:33N 34°15' E 135°07'0 0.0
2016-Aug-23 14:33N 34°15' E 135°07'0 0.0
2016-Aug-23 13:33N 34°15' E 135°07'0 0.0
2016-Aug-23 12:33N 34°15' E 135°07'0 0.0
2016-Aug-23 11:33N 34°15' E 135°07'0 0.0
2016-Aug-23 10:33N 34°15' E 135°07'0 0.0
2016-Aug-23 09:33N 34°15' E 135°07'0 0.0
2016-Aug-23 08:33N 34°15' E 135°07'4 3.8
2016-Aug-23 07:31N 34°18' E 135°04'1313.6
2016-Aug-23 06:33N 34°31' E 135°04'1111.2
2016-Aug-23 05:34N 34°37' E 134°53'  
2016-Aug-20 21:20N 34°08' E 134°45'237 6.1
2016-Aug-19 06:22N 34°59' E 139°27'1214.6
2016-Aug-19 05:33N 35°06' E 139°38'1212.3
2016-Aug-19 04:33N 35°17' E 139°45'1211.7
2016-Aug-19 03:33N 35°28' E 139°47'10 9.8
2016-Aug-19 02:33N 35°38' E 139°50'0 0.0
2016-Aug-19 01:33N 35°38' E 139°50'0 0.0
2016-Aug-19 00:33N 35°38' E 139°50'0 0.0
2016-Aug-18 23:33N 35°38' E 139°50'0 0.0
2016-Aug-18 22:33N 35°38' E 139°50'0 0.0
2016-Aug-18 21:33N 35°38' E 139°50'1 1.2
2016-Aug-18 20:33N 35°37' E 139°50'4 4.4
2016-Aug-18 19:33N 35°33' E 139°52'1211.6
2016-Aug-18 18:33N 35°22' E 139°45'1211.8
2016-Aug-18 17:33N 35°10' E 139°47'1311.6
2016-Aug-18 16:27N 34°60' E 139°37'232 6.6
2016-Aug-17 05:33N 34°05' E 135°04'9 9.3
2016-Aug-17 04:34N 34°14' E 135°08'0 0.0
2016-Aug-17 03:33N 34°14' E 135°08'0 0.0
2016-Aug-17 02:33N 34°14' E 135°08'0 0.0
2016-Aug-17 01:34N 34°14' E 135°08'0 0.0
2016-Aug-17 00:34N 34°14' E 135°08'0 0.0
2016-Aug-16 23:33N 34°14' E 135°08'0 0.0
2016-Aug-16 22:34N 34°14' E 135°08'2 2.0
2016-Aug-16 21:34N 34°15' E 135°06'0 0.0
2016-Aug-16 20:33N 34°15' E 135°06'0 0.0
2016-Aug-16 19:33N 34°15' E 135°06'0 0.1
2016-Aug-16 18:34N 34°15' E 135°06'0 0.0
2016-Aug-16 17:34N 34°15' E 135°06'3 3.4
2016-Aug-16 16:34N 34°12' E 135°04'  
2016-Aug-14 00:24N 34°38' E 134°51'910.5
2016-Aug-13 23:33N 34°37' E 135°02'  

Dump ship's entire track history